Biggsville, Illinois
Current Conditions -  °F | °C
As of 7:53 AM on Tuesday 27 Jan 2015 (Local Time) from KBRL Reporting Station
Clear Clear  
Wind Chill: 29°   Ceiling: Unl
Heat Index: 34°   Visibility: 10mi
Dew Point: 31°   Wind: 6mph
Humidity: 89%   Direction: 340°NNW
Pressure: 30.1"   Gusts: NA
Location:  40.85°N, 90.86°W
Report Text: KBRL 271353Z AUTO 34005KT 10SM CLR 01/M01 A3010 RMK AO2 SLP197 T00111006
Loading
Personal Weather Stations






























Interactive Weather Map New forecast layout! Learn more

10-Day Weather Forecast

Advertisements
Track Severe Weather on mobile